Terminal Aerodrome Forecast
Issued by NWS

Home | Current Version | Previous Version | Graphics & Text | Print | Product List | Glossary On
Versions: 1 2 3 4 5 6 7 8 9 10 11 12 13 14 15 16 17 18 19 20 21 22 23 24
000
FTUS43 KICT 261956 AAA
TAFRSL
TAF AMD
KRSL 261956Z 2620/2718 17010KT P6SM VCTS SCT015 BKN040CB
      TEMPO 2620/2623 VRB20G35KT 2SM +TSRA BKN015CB
     FM262300 15016G24KT P6SM -SHRA VCTS BKN040CB
     FM270200 16012KT P6SM BKN080
     FM270600 14007KT P6SM OVC015
      TEMPO 2710/2714 OVC008=

USA.gov is the U.S. government's official web portal to all federal, state and local government web resources and services.